Duxbury, Vermont
Current Conditions -  °F | °C
As of 2:54 AM on Friday 24 Oct 2014 (Local Time) from KMVL Reporting Station
Light Rain Light Rain  
Wind Chill: 39°   Ceiling: 1300
Heat Index: 43°   Visibility: 10mi
Dew Point: 41°   Wind: 6mph
Humidity: 93%   Direction: 10°N
Pressure: 29.81"   Gusts: NA
Location:  44.3961°N, 72.808°W
Report Text: KMVL 240654Z AUTO 01005KT 10SM -RA OVC013 06/05 A2981 RMK AO2 SLP099 P0006 T00610050
Loading
Personal Weather Stations






























Interactive Weather Map
Tropical Storm Tracking
New forecast layout! Learn more

10-Day Weather Forecast

Advertisements
Track Severe Weather on mobile